createdAt,value
2018-10-21T00:02:04.750Z,21.20
2018-10-21T00:04:32.247Z,22.97
2018-10-21T00:06:59.756Z,20.43
2018-10-21T00:09:27.259Z,20.43
2018-10-21T00:11:54.775Z,22.87
2018-10-21T00:14:22.260Z,21.13
2018-10-21T00:16:49.742Z,23.73
2018-10-21T00:19:17.261Z,20.17
2018-10-21T00:21:44.803Z,26.10
2018-10-21T00:24:12.333Z,24.93
2018-10-21T00:26:39.869Z,22.67
2018-10-21T00:29:07.363Z,23.60
2018-10-21T00:31:34.839Z,22.23
2018-10-21T00:34:02.370Z,23.73
2018-10-21T00:36:29.875Z,20.50
2018-10-21T00:38:57.400Z,25.43
2018-10-21T00:41:24.912Z,21.93
2018-10-21T00:43:52.416Z,24.13
2018-10-21T00:46:19.894Z,26.50
2018-10-21T00:48:47.396Z,21.27
2018-10-21T00:51:14.974Z,25.07
2018-10-21T00:53:42.431Z,23.83
2018-10-21T00:56:09.927Z,25.43
2018-10-21T00:58:37.423Z,24.80
2018-10-21T01:01:05.023Z,23.90
2018-10-21T01:03:32.546Z,24.33
2018-10-21T01:06:00.042Z,23.63
2018-10-21T01:08:27.561Z,25.90
2018-10-21T01:10:55.047Z,22.13
2018-10-21T01:13:22.559Z,27.90
2018-10-21T01:15:50.044Z,26.47
2018-10-21T01:18:17.531Z,29.07
2018-10-21T01:20:44.995Z,24.67
2018-10-21T01:23:12.515Z,23.97
2018-10-21T01:25:40.031Z,25.17
2018-10-21T01:28:07.519Z,23.33
2018-10-21T01:30:35.008Z,24.23
2018-10-21T01:33:02.582Z,23.00
2018-10-21T01:35:30.040Z,24.17
2018-10-21T01:37:57.657Z,22.00
2018-10-21T01:40:29.199Z,23.20
2018-10-21T01:42:56.734Z,24.47
2018-10-21T01:45:24.647Z,23.10
2018-10-21T01:47:52.148Z,21.70
2018-10-21T01:50:19.692Z,24.60
2018-10-21T01:52:47.273Z,22.90
2018-10-21T01:55:14.815Z,22.20
2018-10-21T01:57:42.456Z,23.33
2018-10-21T02:00:09.974Z,25.40
2018-10-21T02:02:37.658Z,21.27
2018-10-21T02:05:05.540Z,20.30
2018-10-21T02:07:33.030Z,20.40
2018-10-21T02:10:00.564Z,22.10
2018-10-21T02:12:28.065Z,18.23
2018-10-21T02:14:55.624Z,18.27
2018-10-21T02:17:23.179Z,18.43
2018-10-21T02:19:50.703Z,17.63
2018-10-21T02:22:18.194Z,18.53
2018-10-21T02:24:45.988Z,18.30
2018-10-21T02:27:13.642Z,19.47
2018-10-21T02:29:41.122Z,18.30
2018-10-21T02:32:08.652Z,21.30
2018-10-21T02:34:36.157Z,20.23
2018-10-21T02:37:03.968Z,20.80
2018-10-21T02:39:31.466Z,21.30
2018-10-21T02:41:58.993Z,22.43
2018-10-21T02:44:26.493Z,19.57
2018-10-21T02:46:55.259Z,23.17
2018-10-21T02:49:22.857Z,20.33
2018-10-21T02:51:56.056Z,18.37
2018-10-21T02:54:25.869Z,23.00
2018-10-21T02:56:53.469Z,22.03
2018-10-21T02:59:21.255Z,21.67
2018-10-21T03:01:48.815Z,20.67
2018-10-21T03:04:16.312Z,22.37
2018-10-21T03:06:43.819Z,21.53
2018-10-21T03:09:11.327Z,21.97
2018-10-21T03:11:38.869Z,22.50
2018-10-21T03:14:06.362Z,24.27
2018-10-21T03:16:33.879Z,21.20
2018-10-21T03:19:01.392Z,22.23
2018-10-21T03:21:28.892Z,25.27
2018-10-21T03:23:56.393Z,21.13
2018-10-21T03:26:23.945Z,20.93
2018-10-21T03:28:51.426Z,20.87
2018-10-21T03:31:18.923Z,20.93
2018-10-21T03:33:46.525Z,24.83
2018-10-21T03:36:14.042Z,24.53
2018-10-21T03:38:41.576Z,22.23
2018-10-21T03:41:09.058Z,25.43
2018-10-21T03:43:36.574Z,21.87
2018-10-21T03:46:04.142Z,20.53
2018-10-21T03:48:31.579Z,27.23
2018-10-21T03:50:59.076Z,24.00
2018-10-21T03:53:26.574Z,25.80
2018-10-21T03:55:54.090Z,25.03
2018-10-21T03:58:21.597Z,27.60
2018-10-21T04:00:49.096Z,23.43
2018-10-21T04:03:16.582Z,23.73
2018-10-21T04:05:44.102Z,23.40
2018-10-21T04:08:11.629Z,23.73
2018-10-21T04:10:39.124Z,24.85
2018-10-21T04:13:06.616Z,26.07
2018-10-21T04:15:34.192Z,23.27
2018-10-21T04:18:01.685Z,23.43
2018-10-21T04:20:29.184Z,30.93
2018-10-21T04:22:57.975Z,26.67
2018-10-21T04:25:26.473Z,26.90
2018-10-21T04:27:54.963Z,26.87
2018-10-21T04:30:28.656Z,23.10
2018-10-21T04:33:01.753Z,29.10
2018-10-21T04:35:29.914Z,25.47
2018-10-21T04:38:37.280Z,26.73
2018-10-21T04:41:04.793Z,25.43
2018-10-21T04:43:32.288Z,29.23
2018-10-21T04:45:59.833Z,28.97
2018-10-21T04:48:27.276Z,27.77
2018-10-21T04:50:54.783Z,29.27
2018-10-21T04:53:22.299Z,25.60
2018-10-21T04:55:49.813Z,26.23
2018-10-21T04:58:17.434Z,26.40
2018-10-21T05:00:44.879Z,26.60
2018-10-21T05:03:12.320Z,28.40
2018-10-21T05:05:39.840Z,31.03
2018-10-21T05:08:07.374Z,25.90
2018-10-21T05:10:36.863Z,29.47
2018-10-21T05:13:05.242Z,28.03
2018-10-21T05:15:33.810Z,31.73
2018-10-21T05:18:01.291Z,30.07
2018-10-21T05:20:28.799Z,28.47
2018-10-21T05:22:56.627Z,26.77
2018-10-21T05:25:24.132Z,28.53
2018-10-21T05:27:51.616Z,30.10
2018-10-21T05:30:19.107Z,29.47
2018-10-21T05:32:46.604Z,29.10
2018-10-21T05:35:15.210Z,31.57
2018-10-21T05:37:42.699Z,30.93
2018-10-21T05:40:13.180Z,30.27
2018-10-21T05:42:40.743Z,25.30
2018-10-21T05:45:08.371Z,29.73
2018-10-21T05:47:36.627Z,31.27
2018-10-21T05:50:04.276Z,29.27
2018-10-21T05:52:31.787Z,27.90
2018-10-21T05:54:59.278Z,28.90
2018-10-21T05:57:26.763Z,29.73
2018-10-21T05:59:54.268Z,27.83
2018-10-21T06:02:21.843Z,28.60
2018-10-21T06:04:50.564Z,29.30
2018-10-21T06:07:18.077Z,33.80
2018-10-21T06:09:45.560Z,34.40
2018-10-21T06:12:13.039Z,34.37
2018-10-21T06:14:40.650Z,35.20
2018-10-21T06:17:40.015Z,31.90
2018-10-21T06:20:14.773Z,29.17
2018-10-21T06:22:43.887Z,30.07
2018-10-21T06:25:11.371Z,31.47
2018-10-21T06:27:39.464Z,27.90
2018-10-21T06:30:08.308Z,31.20
2018-10-21T06:32:35.887Z,25.87
2018-10-21T06:35:03.428Z,25.97
2018-10-21T06:37:31.368Z,27.37
2018-10-21T06:39:58.987Z,26.43
2018-10-21T06:42:26.592Z,27.23
2018-10-21T06:44:54.112Z,26.53
2018-10-21T06:47:21.620Z,26.87
2018-10-21T06:49:49.141Z,23.63
2018-10-21T06:52:16.685Z,27.47
2018-10-21T06:54:44.229Z,23.40
2018-10-21T06:57:11.927Z,25.10
2018-10-21T06:59:39.277Z,27.03
2018-10-21T07:02:06.798Z,26.10
2018-10-21T07:04:36.661Z,25.50
2018-10-21T07:07:04.388Z,22.53
2018-10-21T07:09:31.885Z,26.77
2018-10-21T07:11:59.399Z,24.90
2018-10-21T07:14:26.892Z,26.37
2018-10-21T07:16:56.451Z,27.20
2018-10-21T07:19:23.972Z,26.63
2018-10-21T07:21:51.908Z,24.13
2018-10-21T07:24:21.630Z,25.63
2018-10-21T07:26:49.166Z,28.00
2018-10-21T07:29:16.670Z,21.17
2018-10-21T07:31:44.168Z,23.70
2018-10-21T07:34:11.723Z,24.97
2018-10-21T07:36:39.161Z,21.27
2018-10-21T07:39:08.084Z,26.80
2018-10-21T07:41:35.629Z,24.70
2018-10-21T07:44:03.366Z,26.60
2018-10-21T07:46:30.942Z,23.57
2018-10-21T07:48:58.477Z,23.33
2018-10-21T07:51:26.016Z,26.80
2018-10-21T07:53:53.544Z,21.57
2018-10-21T07:56:21.067Z,28.27
2018-10-21T07:58:48.575Z,22.57
2018-10-21T08:01:16.114Z,23.87
2018-10-21T08:03:43.674Z,23.10
2018-10-21T08:06:24.143Z,29.13
2018-10-21T08:08:51.666Z,25.17
2018-10-21T08:11:19.178Z,25.60
2018-10-21T08:13:46.661Z,24.13
2018-10-21T08:16:14.264Z,24.70
2018-10-21T08:18:41.785Z,26.53
2018-10-21T08:21:09.350Z,24.83
2018-10-21T08:23:36.795Z,31.57
2018-10-21T08:26:04.306Z,27.10
2018-10-21T08:28:32.895Z,25.53
2018-10-21T08:31:00.383Z,27.77
2018-10-21T08:33:27.902Z,24.73
2018-10-21T08:35:55.522Z,30.23
2018-10-21T08:38:22.979Z,23.90
2018-10-21T08:40:50.491Z,23.17
2018-10-21T08:43:17.991Z,23.17
2018-10-21T08:45:45.520Z,22.17
2018-10-21T08:48:13.048Z,24.92
2018-10-21T08:50:40.555Z,23.57
2018-10-21T08:53:08.076Z,22.23
2018-10-21T08:55:35.607Z,24.30
2018-10-21T08:58:03.171Z,20.37
2018-10-21T09:00:30.700Z,19.50
2018-10-21T09:02:58.244Z,20.27
2018-10-21T09:05:25.775Z,23.53
2018-10-21T09:07:53.303Z,25.27
2018-10-21T09:10:20.934Z,18.30
2018-10-21T09:12:48.587Z,23.87
2018-10-21T09:15:17.522Z,29.40
2018-10-21T09:17:44.947Z,21.03
2018-10-21T09:20:13.864Z,24.17
2018-10-21T09:22:41.356Z,23.27
2018-10-21T09:25:09.705Z,23.97
2018-10-21T09:27:37.911Z,23.00
2018-10-21T09:30:06.448Z,28.13
2018-10-21T09:32:34.017Z,23.20
2018-10-21T09:35:01.512Z,22.90
2018-10-21T09:37:29.099Z,24.43
2018-10-21T09:39:56.657Z,22.77
2018-10-21T09:42:24.212Z,28.80
2018-10-21T09:44:51.727Z,25.27
2018-10-21T09:47:19.268Z,24.90
2018-10-21T09:49:46.779Z,25.13
2018-10-21T09:52:14.341Z,29.87
2018-10-21T09:54:41.817Z,26.43
2018-10-21T09:57:09.348Z,26.47
2018-10-21T09:59:36.864Z,30.63
2018-10-21T10:02:10.400Z,27.10
2018-10-21T10:04:37.956Z,25.00
2018-10-21T10:07:05.530Z,32.90
2018-10-21T10:09:33.027Z,29.20
2018-10-21T10:12:00.519Z,28.03
2018-10-21T10:14:28.017Z,23.70
2018-10-21T10:16:55.616Z,29.77
2018-10-21T10:19:23.138Z,26.87
2018-10-21T10:21:50.655Z,26.07
2018-10-21T10:24:18.213Z,31.03
2018-10-21T10:26:45.882Z,30.57
2018-10-21T10:29:13.435Z,28.70
2018-10-21T10:31:40.964Z,28.50
2018-10-21T10:34:08.592Z,32.00
2018-10-21T10:36:36.065Z,33.20
2018-10-21T10:39:05.511Z,30.00
2018-10-21T10:41:33.097Z,31.00
2018-10-21T10:44:00.588Z,27.07
2018-10-21T10:46:28.104Z,30.27
2018-10-21T10:48:55.637Z,32.00
2018-10-21T10:51:23.163Z,30.70
2018-10-21T10:53:50.730Z,29.23
2018-10-21T10:56:18.290Z,28.63
2018-10-21T10:58:45.819Z,29.83
2018-10-21T11:01:13.396Z,32.40
2018-10-21T11:03:40.855Z,35.80
2018-10-21T11:06:08.380Z,30.80
2018-10-21T11:08:35.901Z,31.30
2018-10-21T11:11:03.415Z,32.50
2018-10-21T11:13:31.151Z,30.97
2018-10-21T11:15:58.716Z,33.20
2018-10-21T11:18:26.268Z,30.80
2018-10-21T11:20:53.819Z,32.23
2018-10-21T11:23:21.444Z,31.10
2018-10-21T11:25:48.983Z,38.90
2018-10-21T11:28:16.583Z,33.43
2018-10-21T11:30:44.074Z,33.03
2018-10-21T11:33:17.339Z,31.73
2018-10-21T11:35:44.854Z,33.37
2018-10-21T11:38:12.399Z,35.07
2018-10-21T11:40:39.930Z,31.83
2018-10-21T11:43:07.550Z,32.00
2018-10-21T11:45:35.044Z,31.47
2018-10-21T11:48:02.547Z,29.87
2018-10-21T11:50:30.139Z,33.70
2018-10-21T11:52:57.700Z,29.00
2018-10-21T11:55:25.268Z,33.80
2018-10-21T11:57:52.796Z,30.23
2018-10-21T12:00:20.419Z,32.43
2018-10-21T12:02:47.963Z,35.87
2018-10-21T12:05:15.492Z,32.87
2018-10-21T12:07:43.019Z,36.30
2018-10-21T12:10:10.570Z,32.87
2018-10-21T12:12:38.323Z,38.30
2018-10-21T12:15:06.039Z,34.07
2018-10-21T12:17:35.776Z,36.43
2018-10-21T12:20:03.496Z,32.23
2018-10-21T12:22:31.024Z,34.80
2018-10-21T12:24:58.523Z,36.13
2018-10-21T12:27:26.028Z,37.17
2018-10-21T12:29:53.528Z,35.10
2018-10-21T12:32:21.048Z,37.07
2018-10-21T12:34:48.558Z,34.53
2018-10-21T12:37:16.117Z,39.03
2018-10-21T12:39:46.483Z,33.47
2018-10-21T12:42:13.983Z,37.40
2018-10-21T12:44:41.516Z,36.00
2018-10-21T12:47:09.193Z,37.83
2018-10-21T12:49:36.676Z,34.17
2018-10-21T12:52:04.332Z,36.97
2018-10-21T12:54:31.817Z,31.43
2018-10-21T12:56:59.291Z,33.43
2018-10-21T12:59:26.794Z,34.03
2018-10-21T13:01:54.311Z,34.23
2018-10-21T13:04:21.819Z,38.80
2018-10-21T13:06:49.322Z,34.07
2018-10-21T13:09:16.865Z,34.93
2018-10-21T13:11:44.354Z,32.70
2018-10-21T13:14:11.831Z,37.60
2018-10-21T13:16:39.356Z,34.73
2018-10-21T13:19:06.933Z,34.80
2018-10-21T13:21:34.428Z,33.37
2018-10-21T13:24:01.909Z,29.90
2018-10-21T13:26:29.403Z,34.73
2018-10-21T13:28:56.945Z,33.53
2018-10-21T13:31:24.490Z,37.20
2018-10-21T13:33:51.994Z,32.57
2018-10-21T13:36:19.487Z,32.80
2018-10-21T13:38:46.995Z,30.43
2018-10-21T13:41:14.498Z,33.03
2018-10-21T13:43:42.035Z,33.23
2018-10-21T13:46:09.754Z,28.20
2018-10-21T13:48:37.319Z,30.50
2018-10-21T13:51:05.035Z,30.57
2018-10-21T13:53:32.592Z,31.07
2018-10-21T13:56:00.060Z,32.60
2018-10-21T13:58:27.571Z,34.40
2018-10-21T14:00:55.137Z,27.93
2018-10-21T14:03:22.650Z,27.13
2018-10-21T14:05:50.171Z,29.20
2018-10-21T14:08:17.676Z,28.10
2018-10-21T14:10:45.215Z,27.00
2018-10-21T14:13:12.773Z,25.63
2018-10-21T14:15:40.305Z,31.70
2018-10-21T14:18:07.754Z,29.33
2018-10-21T14:20:35.250Z,30.30
2018-10-21T14:23:02.766Z,28.20
2018-10-21T14:25:30.304Z,27.57
2018-10-21T14:27:57.811Z,27.63
2018-10-21T14:30:25.360Z,28.37
2018-10-21T14:32:52.829Z,23.33
2018-10-21T14:35:20.379Z,29.67
2018-10-21T14:37:47.909Z,31.93
2018-10-21T14:40:15.416Z,29.83
2018-10-21T14:42:42.930Z,32.70
2018-10-21T14:45:11.628Z,30.87
2018-10-21T14:47:39.577Z,30.20
2018-10-21T14:50:07.684Z,31.40
2018-10-21T14:52:35.335Z,29.77
2018-10-21T14:55:02.894Z,32.80
2018-10-21T14:57:30.380Z,34.37
2018-10-21T14:59:57.935Z,33.10
2018-10-21T15:02:25.981Z,34.70
2018-10-21T15:04:53.525Z,31.70
2018-10-21T15:07:21.136Z,32.60
2018-10-21T15:09:48.687Z,31.10
2018-10-21T15:12:16.289Z,31.07
2018-10-21T15:14:43.708Z,31.13
2018-10-21T15:17:11.263Z,28.70
2018-10-21T15:19:39.693Z,31.80
2018-10-21T15:22:07.245Z,32.13
2018-10-21T15:24:34.744Z,29.20
2018-10-21T15:27:02.292Z,28.83
2018-10-21T15:29:29.886Z,29.27
2018-10-21T15:31:57.393Z,28.63
2018-10-21T15:34:24.890Z,30.57
2018-10-21T15:36:52.416Z,23.67
2018-10-21T15:39:19.952Z,28.43
2018-10-21T15:41:47.504Z,26.20
2018-10-21T15:44:15.190Z,25.93
2018-10-21T15:46:42.575Z,27.10
2018-10-21T15:49:10.089Z,26.13
2018-10-21T15:51:37.583Z,25.13
2018-10-21T15:54:05.112Z,23.33
2018-10-21T15:56:32.637Z,25.57
2018-10-21T15:59:00.155Z,25.33
2018-10-21T16:01:27.669Z,27.13
2018-10-21T16:03:55.256Z,25.80
2018-10-21T16:06:22.813Z,26.20
2018-10-21T16:08:50.325Z,23.83
2018-10-21T16:11:17.848Z,24.73
2018-10-21T16:13:45.349Z,23.50
2018-10-21T16:16:12.908Z,27.13
2018-10-21T16:18:40.372Z,24.70
2018-10-21T16:21:07.884Z,25.17
2018-10-21T16:23:35.391Z,28.70
2018-10-21T16:26:03.044Z,23.33
2018-10-21T16:28:30.476Z,23.77
2018-10-21T16:30:57.995Z,23.13
2018-10-21T16:33:25.535Z,24.47
2018-10-21T16:35:53.095Z,26.43
2018-10-21T16:38:20.680Z,23.73
2018-10-21T16:40:48.144Z,27.03
2018-10-21T16:43:15.715Z,25.30
2018-10-21T16:45:43.204Z,23.23
2018-10-21T16:48:10.769Z,24.20
2018-10-21T16:50:38.303Z,24.17
2018-10-21T16:53:05.865Z,26.57
2018-10-21T16:55:33.362Z,25.57
2018-10-21T16:58:00.888Z,25.77
2018-10-21T17:00:28.710Z,27.17
2018-10-21T17:02:55.991Z,26.53
2018-10-21T17:05:23.495Z,23.47
2018-10-21T17:07:50.983Z,26.93
2018-10-21T17:10:18.876Z,22.70
2018-10-21T17:12:46.033Z,28.97
2018-10-21T17:15:13.608Z,28.03
2018-10-21T17:17:41.840Z,26.67
2018-10-21T17:20:13.005Z,29.90
2018-10-21T17:22:41.242Z,30.23
2018-10-21T17:25:08.886Z,22.77
2018-10-21T17:27:36.450Z,24.73
2018-10-21T17:30:06.659Z,28.60
2018-10-21T17:32:34.189Z,28.30
2018-10-21T17:35:01.716Z,22.30
2018-10-21T17:37:29.239Z,27.17
2018-10-21T17:39:56.761Z,28.37
2018-10-21T17:42:24.346Z,24.73
2018-10-21T17:44:51.976Z,24.40
2018-10-21T17:47:19.519Z,23.47
2018-10-21T17:49:47.049Z,26.83
2018-10-21T17:52:14.693Z,27.80
2018-10-21T17:54:42.436Z,22.73
2018-10-21T17:57:09.989Z,27.17
2018-10-21T17:59:37.527Z,29.00
2018-10-21T18:02:05.236Z,26.80
2018-10-21T18:04:32.763Z,24.57
2018-10-21T18:07:00.363Z,26.23
2018-10-21T18:09:27.835Z,22.57
2018-10-21T18:11:55.357Z,21.23
2018-10-21T18:14:22.908Z,27.27
2018-10-21T18:16:50.420Z,26.83
2018-10-21T18:19:18.087Z,23.07
2018-10-21T18:21:45.735Z,27.00
2018-10-21T18:24:13.307Z,22.77
2018-10-21T18:26:40.953Z,26.53
2018-10-21T18:29:08.597Z,23.07
2018-10-21T18:31:36.235Z,28.93
2018-10-21T18:34:03.809Z,26.87
2018-10-21T18:36:31.289Z,25.70
2018-10-21T18:38:58.993Z,26.43
2018-10-21T18:41:26.627Z,28.67
2018-10-21T18:43:54.263Z,23.90
2018-10-21T18:46:21.751Z,26.43
2018-10-21T18:48:49.272Z,29.83
2018-10-21T18:51:16.930Z,35.20
2018-10-21T18:53:44.446Z,30.27
2018-10-21T18:56:11.948Z,29.00
2018-10-21T18:58:39.643Z,27.97
2018-10-21T19:01:07.212Z,28.37
2018-10-21T19:03:34.895Z,25.90
2018-10-21T19:06:02.551Z,28.70
2018-10-21T19:08:30.187Z,28.43
2018-10-21T19:10:58.020Z,26.23
2018-10-21T19:13:25.710Z,29.47
2018-10-21T19:15:53.260Z,28.23
2018-10-21T19:18:20.917Z,28.07
2018-10-21T19:20:48.411Z,28.27
2018-10-21T19:23:16.015Z,26.70
2018-10-21T19:25:43.624Z,27.07
2018-10-21T19:28:11.247Z,28.20
2018-10-21T19:30:38.718Z,29.20
2018-10-21T19:33:06.196Z,29.70
2018-10-21T19:35:33.876Z,30.03
2018-10-21T19:38:01.380Z,27.90
2018-10-21T19:40:29.036Z,30.23
2018-10-21T19:42:56.749Z,28.80
2018-10-21T19:45:24.220Z,30.23
2018-10-21T19:47:51.852Z,28.53
2018-10-21T19:50:19.468Z,33.83
2018-10-21T19:52:46.960Z,31.60
2018-10-21T19:55:14.535Z,31.00
2018-10-21T19:57:42.466Z,31.30
2018-10-21T20:00:12.472Z,33.23
2018-10-21T20:02:40.087Z,28.40
2018-10-21T20:05:07.901Z,33.92
2018-10-21T20:07:35.507Z,33.03
2018-10-21T20:10:03.274Z,32.70
2018-10-21T20:12:30.777Z,30.33
2018-10-21T20:14:58.288Z,35.13
2018-10-21T20:17:25.843Z,30.30
2018-10-21T20:19:53.373Z,32.57
2018-10-21T20:22:20.888Z,30.97
2018-10-21T20:24:48.399Z,30.17
2018-10-21T20:27:15.904Z,30.40
2018-10-21T20:29:43.453Z,32.00
2018-10-21T20:32:10.956Z,28.73
2018-10-21T20:34:38.447Z,33.88
2018-10-21T20:37:05.957Z,30.23
2018-10-21T20:39:33.475Z,29.70
2018-10-21T20:42:00.992Z,30.40
2018-10-21T20:44:28.544Z,30.17
2018-10-21T20:46:56.070Z,31.87
2018-10-21T20:49:23.584Z,30.60
2018-10-21T20:51:51.090Z,31.97
2018-10-21T20:54:18.709Z,32.20
2018-10-21T20:56:46.093Z,29.73
2018-10-21T20:59:13.630Z,28.17
2018-10-21T21:01:41.176Z,31.60
2018-10-21T21:04:08.948Z,32.60
2018-10-21T21:06:36.449Z,30.63
2018-10-21T21:09:06.780Z,30.83
2018-10-21T21:11:34.331Z,31.50
2018-10-21T21:14:01.849Z,32.10
2018-10-21T21:16:29.525Z,31.87
2018-10-21T21:18:57.031Z,32.50
2018-10-21T21:21:24.539Z,30.83
2018-10-21T21:23:52.060Z,32.33
2018-10-21T21:26:19.614Z,31.57
2018-10-21T21:28:47.120Z,32.40
2018-10-21T21:31:14.599Z,30.40
2018-10-21T21:33:42.099Z,31.90
2018-10-21T21:36:09.631Z,34.77
2018-10-21T21:38:37.119Z,32.83
2018-10-21T21:41:04.934Z,33.27
2018-10-21T21:43:32.414Z,36.40
2018-10-21T21:45:59.930Z,36.17
2018-10-21T21:48:27.497Z,33.50
2018-10-21T21:50:55.004Z,41.87
2018-10-21T21:53:22.491Z,32.93
2018-10-21T21:55:50.003Z,35.43
2018-10-21T21:58:17.653Z,35.83
2018-10-21T22:00:45.024Z,38.03
2018-10-21T22:03:12.522Z,36.90
2018-10-21T22:05:40.045Z,36.20
2018-10-21T22:08:07.540Z,33.57
2018-10-21T22:10:35.054Z,36.53
2018-10-21T22:13:02.566Z,34.60
2018-10-21T22:15:30.075Z,36.77
2018-10-21T22:17:57.641Z,33.43
2018-10-21T22:20:25.128Z,33.93
2018-10-21T22:22:52.662Z,33.70
2018-10-21T22:25:20.174Z,36.07
2018-10-21T22:27:47.736Z,34.90
2018-10-21T22:30:15.326Z,32.70
2018-10-21T22:32:42.800Z,34.03
2018-10-21T22:35:10.328Z,33.83
2018-10-21T22:37:37.878Z,35.30
2018-10-21T22:40:05.450Z,37.33
2018-10-21T22:42:32.956Z,24.87
2018-10-21T22:45:00.469Z,22.60
2018-10-21T22:47:28.057Z,23.70
2018-10-21T22:49:55.578Z,20.43
2018-10-21T22:52:23.098Z,20.10
2018-10-21T22:54:50.632Z,18.77
2018-10-21T22:57:19.293Z,14.03
2018-10-21T22:59:48.348Z,17.83
2018-10-21T23:02:16.141Z,12.67
2018-10-21T23:04:44.008Z,15.67
2018-10-21T23:07:11.484Z,14.90
2018-10-21T23:09:38.994Z,15.35
2018-10-21T23:12:07.007Z,15.47
2018-10-21T23:14:34.516Z,17.10
2018-10-21T23:17:02.064Z,17.47
2018-10-21T23:19:38.804Z,19.47
2018-10-21T23:22:06.395Z,16.77
2018-10-21T23:24:34.124Z,16.50
2018-10-21T23:27:01.645Z,15.07
2018-10-21T23:29:29.158Z,19.33
2018-10-21T23:31:56.655Z,17.47
2018-10-21T23:34:24.751Z,13.53
2018-10-21T23:36:52.293Z,18.17
2018-10-21T23:39:19.806Z,15.27
2018-10-21T23:41:47.295Z,19.10
2018-10-21T23:44:14.795Z,16.40
2018-10-21T23:46:42.311Z,17.83
2018-10-21T23:49:09.817Z,16.17
2018-10-21T23:51:37.331Z,15.97
2018-10-21T23:54:04.871Z,15.47
2018-10-21T23:56:32.362Z,15.20
2018-10-21T23:58:59.860Z,13.93
